Time;durP1;ratioP1;P1;durP2;ratioP2;P2;SDS_P1;SDS_P2;PMS_P1;PMS_P2;Temp;Humidity;BMP_temperature;BMP_pressure;BME280_temperature;BME280_humidity;BME280_pressure;Samples;Min_cycle;Max_cycle;Signal;HPM_P1;HPM_P2
2023/02/27 00:01:32;;;;;;;;;4.00;4.00;;;;;3.21;61.68;101914.59;5102720;27;45201;-83
2023/02/27 00:03:58;;;;;;;;;5.00;5.00;;;;;3.12;61.13;101910.75;5102793;27;46462;-81
2023/02/27 00:06:23;;;;;;;;;6.25;5.75;;;;;3.08;62.01;101904.00;5102686;27;45406;-82
2023/02/27 00:08:49;;;;;;;;;5.50;5.50;;;;;3.12;61.63;101918.63;5101213;27;45536;-83
2023/02/27 00:11:14;;;;;;;;;3.00;3.00;;;;;3.07;61.89;101904.94;5101292;27;45926;-82
2023/02/27 00:13:40;;;;;;;;;4.50;4.50;;;;;3.10;62.53;101913.47;5102606;27;46599;-82
2023/02/27 00:16:06;;;;;;;;;5.75;5.25;;;;;3.12;62.50;101914.19;5102457;27;45474;-83
2023/02/27 00:18:31;;;;;;;;;5.50;5.50;;;;;3.10;62.91;101905.59;5102263;27;45393;-82
2023/02/27 00:20:57;;;;;;;;;6.75;6.25;;;;;3.07;62.64;101907.56;5100888;27;46270;-82
2023/02/27 00:23:22;;;;;;;;;6.50;6.00;;;;;3.09;63.93;101909.16;5102467;27;46294;-82
2023/02/27 00:25:48;;;;;;;;;6.00;5.00;;;;;3.07;63.12;101905.78;5101346;27;45632;-82
2023/02/27 00:28:14;;;;;;;;;6.00;6.00;;;;;3.10;63.35;101910.00;5102466;27;45218;-83
2023/02/27 00:30:39;;;;;;;;;7.00;7.00;;;;;3.05;63.65;101905.03;5101919;27;45260;-83
2023/02/27 00:33:05;;;;;;;;;6.00;6.00;;;;;3.02;63.41;101899.97;5101844;27;45492;-83
2023/02/27 00:35:30;;;;;;;;;5.50;5.50;;;;;3.03;64.40;101905.13;5102125;27;45349;-81
2023/02/27 00:37:55;;;;;;;;;6.25;5.25;;;;;3.05;64.35;101912.06;5102090;27;45160;-82
2023/02/27 00:40:24;;;;;;;;;5.00;5.00;;;;;3.07;63.56;101911.03;5101935;27;45243;-83
2023/02/27 00:42:49;;;;;;;;;6.75;6.75;;;;;3.05;63.76;101905.03;5100744;27;47918;-83
2023/02/27 00:45:15;;;;;;;;;8.25;6.00;;;;;3.00;63.11;101899.22;5101760;27;45478;-82
2023/02/27 00:47:40;;;;;;;;;5.75;5.75;;;;;3.02;63.69;101903.44;5088020;27;45773;-82
2023/02/27 00:50:05;;;;;;;;;7.25;5.75;;;;;2.98;63.63;101893.22;5098967;27;46352;-82
2023/02/27 00:52:32;;;;;;;;;7.00;6.50;;;;;3.05;63.77;101909.44;5102016;27;45381;-81
2023/02/27 00:54:58;;;;;;;;;7.75;6.00;;;;;3.00;64.19;101909.72;5100199;27;45377;-82
2023/02/27 00:57:24;;;;;;;;;5.75;5.75;;;;;2.94;64.53;101907.47;5101946;27;45434;-82
2023/02/27 00:59:49;;;;;;;;;6.00;6.00;;;;;2.96;65.29;101908.25;5101545;27;45233;-82
2023/02/27 01:02:15;;;;;;;;;6.25;6.25;;;;;2.93;64.38;101906.63;5100156;27;47447;-82
2023/02/27 01:04:40;;;;;;;;;7.00;7.00;;;;;2.95;65.04;101917.03;5100984;27;45754;-83
2023/02/27 01:07:05;;;;;;;;;7.00;6.00;;;;;2.94;64.58;101910.97;5100574;27;45246;-82
2023/02/27 01:09:31;;;;;;;;;5.00;5.00;;;;;2.95;65.22;101920.53;5101477;27;45397;-83
2023/02/27 01:11:56;;;;;;;;;8.50;7.00;;;;;2.93;65.30;101909.25;5101820;27;46033;-83
2023/02/27 01:14:22;;;;;;;;;8.50;5.50;;;;;2.85;64.97;101898.41;5100839;27;45448;-83
2023/02/27 01:16:47;;;;;;;;;9.25;9.25;;;;;2.89;65.43;101913.88;5101970;27;45344;-82
2023/02/27 01:19:12;;;;;;;;;6.75;6.75;;;;;2.89;65.39;101911.25;5101261;27;45480;-83
2023/02/27 01:21:40;;;;;;;;;9.75;9.00;;;;;2.83;65.78;101898.50;5101836;27;46213;-82
2023/02/27 01:24:06;;;;;;;;;9.50;8.50;;;;;2.73;65.93;101879.00;5101398;27;45522;-83
2023/02/27 01:26:31;;;;;;;;;7.00;7.00;;;;;2.88;65.84;101908.72;5100103;27;45425;-83
2023/02/27 01:28:57;;;;;;;;;6.50;6.25;;;;;2.86;65.65;101897.44;5101239;27;45443;-84
2023/02/27 01:31:22;;;;;;;;;6.50;6.00;;;;;2.88;65.49;101904.28;5101433;27;46489;-82
2023/02/27 01:33:47;;;;;;;;;7.50;6.50;;;;;2.89;65.84;101902.50;5100006;27;45492;-82
2023/02/27 01:36:13;;;;;;;;;6.25;5.50;;;;;2.85;65.47;101907.13;5100604;27;45341;-83
2023/02/27 01:38:38;;;;;;;;;6.00;6.00;;;;;2.84;66.45;101902.78;5101467;27;45460;-84
2023/02/27 01:41:06;;;;;;;;;10.00;10.00;;;;;2.86;66.13;101907.94;5099940;27;47027;-82
2023/02/27 01:43:32;;;;;;;;;6.50;6.50;;;;;2.84;65.95;101909.84;5101029;27;45167;-82
2023/02/27 01:45:59;;;;;;;;;9.00;8.75;;;;;2.79;66.13;101894.38;5101257;27;45324;-82
2023/02/27 01:48:37;;;;;;;;;10.25;8.75;;;;;2.83;66.44;101895.88;5100587;27;45435;-81
2023/02/27 01:51:08;;;;;;;;;10.00;8.00;;;;;2.82;66.32;101899.44;5100644;27;45375;-82
2023/02/27 01:53:37;;;;;;;;;10.25;6.25;;;;;2.76;66.92;101886.69;5087210;27;45441;-82
2023/02/27 01:56:15;;;;;;;;;3.50;3.50;;;;;2.76;66.18;101891.94;5115568;27;45306;-82
2023/02/27 01:58:42;;;;;;;;;5.25;5.25;;;;;2.71;66.22;101884.34;5100816;27;45304;-83
2023/02/27 02:01:07;;;;;;;;;8.25;5.75;;;;;2.77;65.65;101894.47;5087004;27;45283;-82
2023/02/27 02:03:49;;;;;;;;;8.50;8.00;;;;;2.71;66.61;101888.72;5100619;27;45413;-83
2023/02/27 02:06:15;;;;;;;;;7.00;7.00;;;;;2.72;66.47;101890.44;5082472;27;45385;-83
2023/02/27 02:08:48;;;;;;;;;7.00;7.00;;;;;2.71;66.49;101891.34;5112999;27;46182;-82
2023/02/27 02:11:15;;;;;;;;;7.00;7.00;;;;;2.69;66.01;101891.44;5093799;27;46767;-82
2023/02/27 02:13:41;;;;;;;;;8.00;7.75;;;;;2.66;66.69;101891.63;5092946;27;46301;-81
2023/02/27 02:16:31;;;;;;;;;6.75;5.00;;;;;2.68;67.28;101891.53;5100685;27;45498;-84
2023/02/27 02:19:19;;;;;;;;;10.50;8.50;;;;;2.67;67.82;101887.22;5097143;27;46287;-83
2023/02/27 02:21:59;;;;;;;;;7.25;7.25;;;;;2.65;67.53;101871.56;5100357;27;45616;-82
2023/02/27 02:25:02;;;;;;;;;5.75;5.75;;;;;2.63;68.33;101881.31;5113889;27;45320;-82
2023/02/27 02:27:45;;;;;;;;;4.75;4.75;;;;;2.55;67.67;101867.81;5086180;27;45325;-83
2023/02/27 02:30:30;;;;;;;;;9.75;8.50;;;;;2.54;68.03;101863.53;5100137;27;45271;-83
2023/02/27 02:33:14;;;;;;;;;9.00;5.75;;;;;2.58;68.32;101872.91;5098918;27;48455;-82
2023/02/27 02:35:58;;;;;;;;;6.50;6.25;;;;;2.56;68.69;101869.50;5113037;27;46307;-83
2023/02/27 02:38:54;;;;;;;;;6.50;6.50;;;;;2.55;68.28;101873.06;5096322;27;45280;-82
2023/02/27 02:41:37;;;;;;;;;10.75;9.00;;;;;2.50;68.18;101870.72;5100230;27;45261;-83
2023/02/27 02:44:05;;;;;;;;;6.00;6.00;;;;;2.51;69.17;101869.78;5091593;27;46294;-82
2023/02/27 02:46:56;;;;;;;;;6.50;6.50;;;;;2.51;68.72;101868.00;5094540;27;46076;-82
2023/02/27 02:49:45;;;;;;;;;6.25;6.25;;;;;2.49;68.91;101867.25;5100366;27;45282;-83
2023/02/27 02:52:23;;;;;;;;;6.00;6.00;;;;;2.49;68.48;101853.31;5100925;27;45464;-83
2023/02/27 02:55:17;;;;;;;;;0.00;0.00;;;;;2.47;68.38;101863.91;5100281;27;45632;-83
2023/02/27 02:57:48;;;;;;;;;8.50;7.00;;;;;2.47;69.77;101861.28;5099933;27;45267;-81
2023/02/27 03:00:15;;;;;;;;;9.50;8.50;;;;;2.49;69.70;101869.06;5100201;27;45386;-83
2023/02/27 03:02:59;;;;;;;;;5.75;5.75;;;;;2.51;69.96;101864.53;5099339;27;46210;-83
2023/02/27 03:05:31;;;;;;;;;9.25;7.50;;;;;2.45;69.61;101846.56;5095220;27;47448;-82
2023/02/27 03:08:07;;;;;;;;;7.00;7.00;;;;;2.50;70.19;101868.97;5111076;27;45306;-82
2023/02/27 03:10:39;;;;;;;;;6.00;6.00;;;;;2.46;70.60;101858.75;5091913;27;45339;-82
2023/02/27 03:13:22;;;;;;;;;7.00;7.00;;;;;2.49;70.54;101867.25;5086673;27;45336;-85
2023/02/27 03:16:00;;;;;;;;;6.75;6.75;;;;;2.46;70.68;101864.84;5099528;27;45503;-83
2023/02/27 03:18:33;;;;;;;;;5.75;5.75;;;;;2.44;71.01;101861.44;5099378;27;45353;-82
2023/02/27 03:21:05;;;;;;;;;6.00;5.50;;;;;2.47;70.29;101863.03;5086157;27;45333;-82
2023/02/27 03:23:41;;;;;;;;;5.00;3.50;;;;;2.40;70.57;101855.53;5098660;27;46068;-83
2023/02/27 03:26:08;;;;;;;;;6.00;6.00;;;;;2.40;70.16;101862.59;5087234;27;45309;-82
2023/02/27 03:28:49;;;;;;;;;6.00;5.25;;;;;2.43;70.83;101862.41;5097895;27;45417;-81
2023/02/27 03:31:31;;;;;;;;;6.75;5.50;;;;;2.44;70.37;101873.72;5101871;27;45605;-82
2023/02/27 03:34:05;;;;;;;;;6.25;6.00;;;;;2.43;70.42;101872.03;5102884;27;45417;-83
2023/02/27 03:36:39;;;;;;;;;7.75;7.75;;;;;2.43;70.16;101869.41;5089516;27;45664;-83
2023/02/27 03:39:31;;;;;;;;;7.50;6.50;;;;;2.47;69.31;101882.25;5102159;27;45334;-83
2023/02/27 03:42:13;;;;;;;;;4.50;4.50;;;;;2.47;70.02;101882.25;5103216;27;45389;-82
2023/02/27 03:44:57;;;;;;;;;6.75;6.75;;;;;2.51;70.17;101890.78;5102853;27;45484;-82
2023/02/27 03:47:23;;;;;;;;;6.25;6.25;;;;;2.45;69.79;101894.63;5102818;27;45669;-82
2023/02/27 03:49:51;;;;;;;;;4.50;4.00;;;;;2.36;69.49;101885.53;5101225;27;45333;-82
2023/02/27 03:52:19;;;;;;;;;5.00;5.00;;;;;2.47;69.43;101892.75;5101847;27;45362;-83
2023/02/27 03:54:58;;;;;;;;;6.50;6.50;;;;;2.48;69.61;101888.34;5102372;27;45509;-81
2023/02/27 03:57:24;;;;;;;;;4.00;4.00;;;;;2.44;69.50;101881.59;5102775;27;46195;-83
2023/02/27 03:59:50;;;;;;;;;3.00;3.00;;;;;2.44;69.99;101890.31;5102659;27;45318;-82
2023/02/27 04:02:15;;;;;;;;;5.00;5.00;;;;;2.43;69.86;101887.78;5102860;27;45276;-82
2023/02/27 04:04:41;;;;;;;;;7.00;7.00;;;;;2.41;70.18;101893.13;5102766;27;45563;-82
2023/02/27 04:07:36;;;;;;;;;6.50;6.00;;;;;2.44;69.96;101897.34;5102558;27;45422;-82
2023/02/27 04:10:50;;;;;;;;;7.00;7.00;;;;;2.47;70.18;101899.78;5101237;27;45476;-83
2023/02/27 04:14:04;;;;;;;;;9.00;7.00;;;;;2.47;69.83;101903.25;5088890;27;45354;-84
2023/02/27 04:16:54;;;;;;;;;5.00;5.00;;;;;2.45;70.20;101902.50;5087469;27;46963;-83
2023/02/27 04:19:34;;;;;;;;;5.00;1.50;;;;;2.43;70.22;101907.00;5101205;27;46447;-83
2023/02/27 04:22:05;;;;;;;;;6.75;6.75;;;;;2.43;70.06;101906.16;5102469;27;45156;-82
2023/02/27 04:24:53;;;;;;;;;4.00;4.00;;;;;2.37;70.88;101897.69;5101265;27;45575;-82
2023/02/27 04:27:31;;;;;;;;;6.75;6.00;;;;;2.40;70.75;101900.16;5102053;27;45304;-83
2023/02/27 04:30:19;;;;;;;;;4.00;4.00;;;;;2.31;71.15;101876.25;5102248;27;45338;-82
2023/02/27 04:32:45;;;;;;;;;6.00;6.00;;;;;2.43;70.77;101912.25;5091563;27;45808;-83
2023/02/27 04:35:18;;;;;;;;;3.50;3.50;;;;;2.42;71.16;101909.72;5097857;27;45394;-82
2023/02/27 04:37:49;;;;;;;;;11.75;8.50;;;;;2.43;70.68;101912.25;5102238;27;45416;-82
2023/02/27 04:40:20;;;;;;;;;8.75;6.00;;;;;2.40;71.01;101900.16;5100586;27;48435;-83
2023/02/27 04:42:53;;;;;;;;;6.50;5.75;;;;;2.44;71.54;101907.84;5101869;27;45425;-82
2023/02/27 04:45:22;;;;;;;;;5.50;4.50;;;;;2.43;70.97;101916.66;5101153;27;45385;-82
2023/02/27 04:47:54;;;;;;;;;6.75;6.25;;;;;2.42;70.65;101914.97;5096840;27;46441;-85
2023/02/27 04:50:33;;;;;;;;;5.00;5.00;;;;;2.33;71.16;101909.31;5101565;27;46325;-83
2023/02/27 04:53:07;;;;;;;;;8.00;8.00;;;;;2.39;71.24;101911.59;5102109;27;46334;-82
2023/02/27 04:55:40;;;;;;;;;10.50;8.75;;;;;2.39;71.23;101914.22;5097567;27;45329;-83
2023/02/27 04:58:13;;;;;;;;;5.00;5.00;;;;;2.37;71.59;101910.81;5098283;27;45547;-82
2023/02/27 05:00:43;;;;;;;;;7.25;5.00;;;;;2.40;71.61;101925.56;5114507;27;46967;-84
2023/02/27 05:03:15;;;;;;;;;6.75;6.75;;;;;2.39;72.29;101924.72;5099984;27;45381;-83
2023/02/27 05:05:43;;;;;;;;;9.25;8.50;;;;;2.33;71.86;101917.19;5102003;27;45266;-83
2023/02/27 05:08:18;;;;;;;;;5.25;5.25;;;;;2.37;71.84;101920.50;5087662;27;45325;-84
2023/02/27 05:10:59;;;;;;;;;8.25;8.25;;;;;2.42;72.41;101930.72;5101576;27;45167;-83
2023/02/27 05:13:31;;;;;;;;;7.00;7.00;;;;;2.39;71.65;101935.22;5101544;27;45436;-84
2023/02/27 05:16:16;;;;;;;;;15.50;15.50;;;;;2.40;71.82;101936.06;5102238;27;45356;-83
2023/02/27 05:18:42;;;;;;;;;7.50;5.75;;;;;2.33;72.41;101932.94;5101435;27;45412;-82
2023/02/27 05:21:45;;;;;;;;;34.00;24.50;;;;;2.39;71.97;101937.84;5101525;27;45321;-84
2023/02/27 05:24:36;;;;;;;;;29.50;26.25;;;;;2.33;72.36;101925.06;5092769;27;45419;-84
2023/02/27 05:27:26;;;;;;;;;18.25;15.00;;;;;2.40;72.72;101947.38;5097543;27;45312;-83
2023/02/27 05:30:11;;;;;;;;;60.00;45.00;;;;;2.35;72.15;101941.56;5101106;27;45220;-84
2023/02/27 05:32:39;;;;;;;;;31.25;30.25;;;;;2.40;72.63;101949.19;5099717;27;47220;-84
2023/02/27 05:35:29;;;;;;;;;32.00;30.75;;;;;2.42;72.88;101949.09;5101107;27;45534;-85
2023/02/27 05:38:05;;;;;;;;;17.75;14.50;;;;;2.43;73.48;101950.78;5101458;27;45420;-83
2023/02/27 05:40:35;;;;;;;;;65.50;51.75;;;;;2.35;73.25;101936.31;5088370;27;45399;-84
2023/02/27 05:43:06;;;;;;;;;85.25;64.00;;;;;2.39;73.20;101947.47;5100965;27;46628;-83
2023/02/27 05:45:35;;;;;;;;;52.75;41.00;;;;;2.37;73.44;101944.13;5090778;27;45615;-85
2023/02/27 05:48:14;;;;;;;;;13.75;13.50;;;;;2.33;73.86;101937.38;5096864;27;45335;-82
2023/02/27 05:50:42;;;;;;;;;17.25;15.00;;;;;2.32;73.55;101930.41;5099931;27;47332;-84
2023/02/27 05:53:14;;;;;;;;;43.75;40.25;;;;;2.33;73.55;101947.84;5098724;27;45458;-83
2023/02/27 05:55:47;;;;;;;;;27.50;25.75;;;;;2.35;73.57;101952.06;5088609;27;45160;-84
2023/02/27 05:58:48;;;;;;;;;48.25;39.75;;;;;2.31;73.69;101950.56;5100895;27;45483;-84
2023/02/27 06:01:14;;;;;;;;;60.00;47.25;;;;;2.26;74.55;101944.72;5073203;27;45407;-83
2023/02/27 06:03:40;;;;;;;;;12.50;11.75;;;;;2.31;75.05;101950.56;5100659;27;45366;-84
2023/02/27 06:06:17;;;;;;;;;37.75;34.25;;;;;2.27;74.93;101956.91;5099970;27;46068;-82
2023/02/27 06:08:44;;;;;;;;;75.50;58.25;;;;;2.28;75.03;101956.00;5100929;27;45254;-83
2023/02/27 06:11:10;;;;;;;;;60.75;44.25;;;;;2.27;74.21;101960.38;5098574;27;47310;-82
2023/02/27 06:13:35;;;;;;;;;33.00;30.50;;;;;2.24;75.45;101963.19;5104593;27;48033;-82
2023/02/27 06:16:01;;;;;;;;;37.75;34.00;;;;;2.25;75.24;101970.13;5088661;27;45325;-82
2023/02/27 06:18:36;;;;;;;;;34.25;30.00;;;;;2.20;75.69;101963.44;5100167;27;45291;-85
2023/02/27 06:21:02;;;;;;;;;72.25;53.00;;;;;2.24;75.30;101973.69;5092961;27;45654;-82
2023/02/27 06:23:28;;;;;;;;;16.25;16.25;;;;;2.24;75.71;101981.56;5093568;27;45448;-82
2023/02/27 06:25:53;;;;;;;;;72.00;56.50;;;;;2.22;76.38;101972.09;5100440;27;45336;-80
2023/02/27 06:28:18;;;;;;;;;69.75;54.50;;;;;2.21;75.44;101975.66;5100559;27;45541;-80
2023/02/27 06:30:44;;;;;;;;;34.50;31.75;;;;;2.17;75.97;101961.00;5100205;27;45418;-82
2023/02/27 06:33:11;;;;;;;;;17.00;15.25;;;;;2.20;75.74;101976.56;5102150;27;45304;-84
2023/02/27 06:35:36;;;;;;;;;36.00;34.50;;;;;2.08;76.58;101958.00;5080856;27;45314;-83
2023/02/27 06:38:01;;;;;;;;;45.50;39.00;;;;;2.18;76.32;101978.44;5081975;27;45739;-82
2023/02/27 06:40:27;;;;;;;;;87.00;67.25;;;;;2.12;76.37;101975.22;5100051;27;45320;-81
2023/02/27 06:42:52;;;;;;;;;76.75;57.00;;;;;2.17;76.34;101982.84;5099753;27;45462;-81
2023/02/27 06:45:18;;;;;;;;;25.00;25.00;;;;;2.16;76.52;101981.16;5099491;27;45956;-81
2023/02/27 06:47:43;;;;;;;;;50.25;42.75;;;;;2.12;76.54;101977.00;5100195;27;45840;-80
2023/02/27 06:50:11;;;;;;;;;24.00;22.50;;;;;2.12;76.71;101984.88;5099441;27;45340;-81
2023/02/27 06:52:38;;;;;;;;;16.50;14.50;;;;;2.10;77.01;101992.81;5100790;27;46521;-80
2023/02/27 06:55:05;;;;;;;;;26.75;26.50;;;;;2.13;77.00;101999.69;5099659;27;45295;-79
2023/02/27 06:57:31;;;;;;;;;67.00;53.00;;;;;2.12;76.42;101997.97;5100091;27;45394;-80
2023/02/27 06:59:56;;;;;;;;;25.25;21.75;;;;;2.10;77.07;101998.06;5099785;27;45316;-78
2023/02/27 07:02:24;;;;;;;;;9.25;9.25;;;;;2.08;77.41;102001.72;5099659;27;45336;-79
2023/02/27 07:04:50;;;;;;;;;66.75;52.00;;;;;2.14;77.86;102011.88;5101334;27;45317;-80
2023/02/27 07:07:16;;;;;;;;;93.25;68.25;;;;;2.17;77.60;102018.72;5103288;27;45404;-80
2023/02/27 07:09:41;;;;;;;;;12.75;12.75;;;;;2.17;77.68;102018.72;5103683;27;45551;-83
2023/02/27 07:12:06;;;;;;;;;78.75;59.75;;;;;2.18;77.52;102008.13;5108718;27;46521;-78
2023/02/27 07:14:32;;;;;;;;;77.75;59.25;;;;;2.22;77.83;102027.19;5089843;27;45141;-79
2023/02/27 07:17:02;;;;;;;;;65.25;48.00;;;;;2.22;76.85;102025.38;5102773;27;45191;-78
2023/02/27 07:19:27;;;;;;;;;11.50;11.50;;;;;2.20;77.45;102019.41;5127670;27;46065;-78
2023/02/27 07:21:52;;;;;;;;;15.25;13.50;;;;;2.23;76.89;102026.25;5109603;27;45382;-76
2023/02/27 07:24:18;;;;;;;;;28.25;23.00;;;;;2.20;77.63;102021.16;5095768;27;46367;-78
2023/02/27 07:26:43;;;;;;;;;66.50;53.25;;;;;2.24;77.50;102027.91;5090129;27;45274;-78
2023/02/27 07:29:08;;;;;;;;;64.75;50.00;;;;;2.27;77.70;102028.59;5103989;27;45533;-78
2023/02/27 07:31:34;;;;;;;;;13.75;12.75;;;;;2.27;76.43;102018.09;5105570;27;48064;-77
2023/02/27 07:33:59;;;;;;;;;8.50;7.50;;;;;2.29;77.23;102020.66;5106820;27;45392;-78
2023/02/27 07:36:25;;;;;;;;;9.75;8.75;;;;;2.29;76.76;102032.91;5108349;27;45220;-77
2023/02/27 07:38:50;;;;;;;;;8.50;8.50;;;;;2.27;76.81;102028.59;5106015;27;46944;-77
2023/02/27 07:41:16;;;;;;;;;21.25;19.25;;;;;2.32;77.58;102024.88;5106649;27;45364;-77
2023/02/27 07:43:42;;;;;;;;;20.75;19.25;;;;;2.36;76.92;102037.72;5107752;27;45816;-78
2023/02/27 07:46:07;;;;;;;;;18.00;17.00;;;;;2.38;77.91;102033.25;5105425;27;45325;-77
2023/02/27 07:48:33;;;;;;;;;15.00;15.00;;;;;2.43;77.25;102025.09;5104402;27;45377;-78
2023/02/27 07:50:59;;;;;;;;;9.75;9.00;;;;;2.49;77.21;102035.22;5103694;27;45418;-78
2023/02/27 07:53:25;;;;;;;;;9.00;8.00;;;;;2.47;76.62;102036.25;5103440;27;45389;-77
2023/02/27 07:55:50;;;;;;;;;10.00;10.00;;;;;2.49;76.32;102031.78;5104790;27;45420;-78
2023/02/27 07:58:15;;;;;;;;;18.50;16.50;;;;;2.57;76.19;102036.59;5103365;27;45309;-78
2023/02/27 08:00:41;;;;;;;;;15.50;13.75;;;;;2.57;75.85;102045.28;5104241;27;45438;-78
2023/02/27 08:03:07;;;;;;;;;17.00;15.00;;;;;2.54;76.49;102032.34;5103638;27;45363;-76
2023/02/27 08:05:32;;;;;;;;;12.25;10.75;;;;;2.45;76.65;102012.72;5105082;27;45336;-77
2023/02/27 08:07:57;;;;;;;;;15.00;11.75;;;;;2.66;76.08;102043.91;5104926;27;46297;-77
2023/02/27 08:10:23;;;;;;;;;11.00;11.00;;;;;2.67;76.19;102043.00;5090540;27;47284;-79
2023/02/27 08:12:49;;;;;;;;;40.25;32.50;;;;;2.75;75.67;102050.38;5100881;27;45470;-79
2023/02/27 08:15:15;;;;;;;;;6.50;6.25;;;;;2.74;76.11;102032.94;5092577;27;45225;-78
2023/02/27 08:17:41;;;;;;;;;27.75;23.25;;;;;2.81;75.54;102039.53;5101721;27;45584;-78
2023/02/27 08:20:10;;;;;;;;;22.00;19.50;;;;;2.88;74.35;102046.09;5103469;27;45439;-79
2023/02/27 08:22:35;;;;;;;;;11.25;10.00;;;;;2.94;74.17;102046.69;5098452;27;45315;-78
2023/02/27 08:25:01;;;;;;;;;9.00;9.00;;;;;2.95;74.13;102037.84;5098783;27;45313;-77
2023/02/27 08:27:26;;;;;;;;;50.25;41.25;;;;;3.00;73.36;102039.28;5095781;27;45437;-77
2023/02/27 08:29:51;;;;;;;;;52.00;40.25;;;;;3.08;72.07;102046.69;5097339;27;45434;-78
2023/02/27 08:32:17;;;;;;;;;10.50;7.00;;;;;3.11;70.85;102030.75;5095759;27;45328;-82
2023/02/27 08:34:42;;;;;;;;;34.25;29.25;;;;;3.12;70.86;102044.75;5097193;27;45335;-78
2023/02/27 08:37:07;;;;;;;;;48.50;38.25;;;;;3.13;69.70;102042.03;5102789;27;45343;-79
2023/02/27 08:39:32;;;;;;;;;44.00;37.50;;;;;3.25;69.33;102042.19;5100825;27;47001;-78
2023/02/27 08:41:58;;;;;;;;;67.00;51.25;;;;;3.24;68.67;102046.63;5102166;27;45331;-79
2023/02/27 08:44:23;;;;;;;;;36.00;31.75;;;;;3.35;68.33;102053.00;5101070;27;45300;-78
2023/02/27 08:46:49;;;;;;;;;39.75;33.00;;;;;3.36;66.49;102057.31;5101320;27;45294;-78
2023/02/27 08:49:14;;;;;;;;;35.00;27.00;;;;;3.37;67.69;102049.34;5100686;27;47172;-78
2023/02/27 08:51:40;;;;;;;;;52.50;44.25;;;;;3.48;66.95;102058.34;5102568;27;45371;-77
2023/02/27 08:54:05;;;;;;;;;18.25;14.50;;;;;3.53;67.21;102061.53;5101970;27;45324;-78
2023/02/27 08:56:33;;;;;;;;;18.25;18.00;;;;;3.59;66.84;102053.25;5101912;27;45524;-79
2023/02/27 08:58:58;;;;;;;;;23.25;21.00;;;;;3.60;65.76;102067.25;5102789;27;45529;-79
2023/02/27 09:01:26;;;;;;;;;64.75;52.25;;;;;3.61;65.75;102061.06;5101892;27;45360;-79
2023/02/27 09:03:52;;;;;;;;;37.00;34.25;;;;;3.65;65.34;102060.75;5102378;27;45372;-79
2023/02/27 09:06:17;;;;;;;;;72.50;57.50;;;;;3.69;65.47;102066.69;5100175;27;46430;-79
2023/02/27 09:08:42;;;;;;;;;14.00;13.00;;;;;3.72;64.92;102065.66;5101266;27;45531;-78
2023/02/27 09:11:08;;;;;;;;;29.25;26.75;;;;;3.76;64.61;102068.00;5100610;27;45368;-80
2023/02/27 09:13:33;;;;;;;;;12.75;12.50;;;;;3.80;64.60;102073.88;5101899;27;45338;-79
2023/02/27 09:15:58;;;;;;;;;10.75;9.50;;;;;3.86;63.48;102081.41;5102165;27;45495;-80
2023/02/27 09:18:24;;;;;;;;;6.25;6.25;;;;;3.89;63.69;102086.47;5100251;27;46916;-79
2023/02/27 09:20:50;;;;;;;;;49.25;40.25;;;;;3.93;63.37;102084.50;5101226;27;45401;-81
2023/02/27 09:23:16;;;;;;;;;6.00;5.00;;;;;3.89;63.15;102089.09;5102085;27;45347;-78
2023/02/27 09:25:41;;;;;;;;;20.50;17.25;;;;;3.95;63.67;102090.50;5100996;27;45571;-79
2023/02/27 09:28:06;;;;;;;;;40.75;36.50;;;;;3.99;63.99;102078.84;5098527;27;47227;-77
2023/02/27 09:30:32;;;;;;;;;49.50;40.75;;;;;4.07;63.41;102090.66;5101032;27;45309;-78
2023/02/27 09:32:57;;;;;;;;;34.25;26.50;;;;;4.12;63.34;102086.78;5098395;27;45552;-81
2023/02/27 09:35:24;;;;;;;;;19.25;18.00;;;;;4.17;62.66;102086.50;5094904;27;47030;-78
2023/02/27 09:37:49;;;;;;;;;27.50;23.25;;;;;4.21;62.00;102095.88;5097486;27;47918;-78
2023/02/27 09:40:24;;;;;;;;;5.50;5.50;;;;;4.26;61.57;102093.81;5099706;27;45279;-80
2023/02/27 09:42:50;;;;;;;;;8.00;8.00;;;;;4.29;61.27;102083.06;5098585;27;45475;-79
2023/02/27 09:45:28;;;;;;;;;55.25;42.75;;;;;4.37;62.01;102098.34;5100615;27;45379;-78
2023/02/27 09:48:12;;;;;;;;;20.50;20.50;;;;;4.44;61.21;102087.44;5100400;27;45447;-79
2023/02/27 09:50:47;;;;;;;;;44.00;34.00;;;;;4.52;60.76;102091.25;5099160;27;45303;-78
2023/02/27 09:53:25;;;;;;;;;8.50;8.25;;;;;4.57;59.89;102093.59;5097254;27;45329;-79
2023/02/27 09:55:53;;;;;;;;;29.25;26.25;;;;;4.60;59.91;102089.91;5100203;27;45445;-78
2023/02/27 09:58:41;;;;;;;;;67.25;51.75;;;;;4.80;60.87;102105.25;5115819;27;46390;-79
2023/02/27 10:01:24;;;;;;;;;24.75;23.75;;;;;4.90;59.38;102101.97;5101321;27;45412;-78
2023/02/27 10:04:34;;;;;;;;;49.50;39.00;;;;;4.97;59.02;102095.34;5100502;27;45555;-78
2023/02/27 10:07:30;;;;;;;;;4.00;4.00;;;;;4.99;57.70;102092.59;5080894;27;45524;-78
2023/02/27 10:10:19;;;;;;;;;6.75;6.75;;;;;5.12;58.91;102097.91;5100360;27;46346;-78
2023/02/27 10:12:47;;;;;;;;;12.75;11.00;;;;;5.20;58.09;102098.19;5115747;27;45347;-78
2023/02/27 10:15:15;;;;;;;;;5.33;5.33;;;;;5.28;56.73;102097.69;5089543;27;45344;-79
2023/02/27 10:17:50;;;;;;;;;7.25;7.00;;;;;5.26;56.63;102102.22;5097839;27;46307;-76
2023/02/27 10:20:21;;;;;;;;;7.67;7.67;;;;;5.35;55.96;102100.72;5101424;27;45344;-80
2023/02/27 10:22:50;;;;;;;;;6.67;4.00;;;;;5.37;55.80;102099.69;5100626;27;45293;-78
2023/02/27 10:25:17;;;;;;;;;37.50;35.00;;;;;5.47;55.59;102101.66;5100947;27;45250;-79
2023/02/27 10:27:47;;;;;;;;;14.50;13.75;;;;;5.49;55.70;102089.22;5099110;27;46157;-79
2023/02/27 10:30:22;;;;;;;;;10.25;8.75;;;;;5.60;56.48;102077.94;5098571;27;48029;-79
2023/02/27 10:32:51;;;;;;;;;6.00;3.00;;;;;5.69;54.97;102091.31;5100822;27;45519;-78
2023/02/27 10:35:27;;;;;;;;;21.25;19.75;;;;;5.73;54.82;102089.31;5098720;27;45353;-78
2023/02/27 10:37:59;;;;;;;;;9.00;8.00;;;;;5.81;54.86;102091.41;5100264;27;45458;-79
2023/02/27 10:40:25;;;;;;;;;6.25;6.25;;;;;5.84;54.41;102091.19;5099522;27;46339;-79
2023/02/27 10:42:53;;;;;;;;;6.33;6.33;;;;;5.94;54.46;102096.63;5100089;27;45282;-78
2023/02/27 10:45:19;;;;;;;;;8.33;8.00;;;;;6.04;53.47;102107.41;5100788;27;45324;-79
2023/02/27 10:47:45;;;;;;;;;15.50;13.50;;;;;6.09;53.19;102088.59;5098339;27;46251;-78
2023/02/27 10:50:19;;;;;;;;;22.50;19.25;;;;;6.21;53.99;102093.00;5099998;27;45616;-77
2023/02/27 10:52:57;;;;;;;;;36.75;30.75;;;;;6.29;52.18;102101.19;5099060;27;45855;-77
2023/02/27 10:55:28;;;;;;;;;36.50;30.75;;;;;6.30;51.26;102092.31;5099730;27;45549;-78
2023/02/27 10:57:56;;;;;;;;;31.50;27.75;;;;;6.31;49.83;102091.34;5098465;27;45719;-78
2023/02/27 11:00:32;;;;;;;;;2.00;2.00;;;;;6.38;50.10;102093.56;5099917;27;46617;-78
2023/02/27 11:02:58;;;;;;;;;17.50;16.25;;;;;6.40;50.26;102075.78;5100085;27;45327;-77
2023/02/27 11:05:34;;;;;;;;;3.00;3.00;;;;;6.54;49.57;102083.53;5099005;27;45384;-79
2023/02/27 11:08:19;;;;;;;;;11.67;10.00;;;;;6.61;49.62;102065.41;5098932;27;46534;-80
2023/02/27 11:10:55;;;;;;;;;17.00;12.50;;;;;6.86;48.91;102075.94;5099676;27;46667;-78
2023/02/27 11:13:22;;;;;;;;;21.50;20.00;;;;;6.97;48.46;102077.78;5097441;27;45277;-78
2023/02/27 11:16:06;;;;;;;;;3.00;3.00;;;;;7.02;46.78;102065.88;5098675;27;45444;-78
2023/02/27 11:18:33;;;;;;;;;32.00;26.75;;;;;7.01;45.91;102066.84;5099998;27;45891;-77
2023/02/27 11:21:21;;;;;;;;;10.33;7.67;;;;;7.06;46.25;102074.41;5100309;27;45398;-76
2023/02/27 11:24:02;;;;;;;;;14.00;12.67;;;;;7.06;46.29;102067.31;5099435;27;45425;-80
2023/02/27 11:26:39;;;;;;;;;48.00;37.50;;;;;7.14;47.10;102071.16;5099327;27;45303;-80
2023/02/27 11:29:19;;;;;;;;;45.00;37.75;;;;;7.20;45.21;102079.47;5100009;27;45417;-80
2023/02/27 11:31:44;;;;;;;;;4.00;4.00;;;;;7.25;44.73;102062.41;5100730;27;45320;-78
2023/02/27 11:34:20;;;;;;;;;24.25;22.50;;;;;7.29;45.40;102062.06;5099853;27;45208;-78
2023/02/27 11:36:47;;;;;;;;;42.00;35.50;;;;;7.40;45.62;102063.00;5091710;27;45279;-78
2023/02/27 11:39:38;;;;;;;;;9.00;8.00;;;;;7.58;45.96;102066.84;5098016;27;47431;-77
2023/02/27 11:42:25;;;;;;;;;9.00;9.00;;;;;7.76;44.28;102069.00;5089324;27;45561;-79
2023/02/27 11:45:29;;;;;;;;;45.75;33.50;;;;;7.90;44.75;102059.13;5099147;27;46157;-81
2023/02/27 11:48:00;;;;;;;;;20.50;15.25;;;;;7.97;44.57;102057.66;5035748;28;45418;-79